Time;durP1;ratioP1;P1;durP2;ratioP2;P2;SDS_P1;SDS_P2;PMS_P1;PMS_P2;Temp;Humidity;BMP_temperature;BMP_pressure;BME280_temperature;BME280_humidity;BME280_pressure;Samples;Min_cycle;Max_cycle;Signal;HPM_P1;HPM_P2
2022/12/24 00:01:51;;;;;;;40.60;21.07;;;;;;;0.53;82.05;100326.22;1770001;79;21953;-90
2022/12/24 00:04:18;;;;;;;36.60;21.45;;;;;;;0.54;82.01;100331.87;1789331;77;20979;-90
2022/12/24 00:06:44;;;;;;;38.88;22.20;;;;;;;0.49;81.83;100329.41;1786699;79;21030;-90
2022/12/24 00:09:11;;;;;;;44.35;24.02;;;;;;;0.45;81.75;100330.05;1798106;79;20998;-90
2022/12/24 00:11:38;;;;;;;49.65;25.35;;;;;;;0.41;81.72;100329.38;1786119;79;21723;-90
2022/12/24 00:14:04;;;;;;;42.62;23.60;;;;;;;0.36;81.74;100334.30;1781779;79;20998;-90
2022/12/24 00:16:31;;;;;;;44.45;23.00;;;;;;;0.33;81.82;100334.11;1789199;79;21311;-90
2022/12/24 00:18:58;;;;;;;39.38;22.77;;;;;;;0.31;81.90;100330.54;1768690;79;20956;-90
2022/12/24 00:21:24;;;;;;;46.65;25.27;;;;;;;0.27;81.96;100332.46;1778589;79;21018;-90
2022/12/24 00:23:51;;;;;;;43.58;24.98;;;;;;;0.23;82.02;100334.38;1771097;79;21727;-90
2022/12/24 00:26:17;;;;;;;41.02;25.35;;;;;;;0.22;82.08;100334.76;1782356;78;21010;-90
2022/12/24 00:28:44;;;;;;;48.23;25.77;;;;;;;0.22;82.13;100333.88;1785666;78;21460;-90
2022/12/24 00:31:14;;;;;;;45.40;24.32;;;;;;;0.20;82.15;100332.48;1778907;77;20987;-89
2022/12/24 00:33:41;;;;;;;44.13;23.73;;;;;;;0.18;82.22;100337.56;1789044;79;21025;-89
2022/12/24 00:36:08;;;;;;;38.75;21.93;;;;;;;0.16;82.27;100339.58;1801600;79;21711;-89
2022/12/24 00:38:35;;;;;;;40.10;21.80;;;;;;;0.14;82.41;100336.01;1802095;77;21102;-90
2022/12/24 00:41:02;;;;;;;44.10;23.05;;;;;;;0.14;82.53;100339.89;1798757;79;21344;-90
2022/12/24 00:43:29;;;;;;;42.83;22.17;;;;;;;0.14;82.58;100333.01;1790247;79;21443;-90
2022/12/24 00:45:56;;;;;;;42.27;21.97;;;;;;;0.14;82.68;100339.89;1786328;79;21050;-91
2022/12/24 00:48:23;;;;;;;43.33;23.25;;;;;;;0.15;82.74;100337.40;1770960;79;21714;-90
2022/12/24 00:50:50;;;;;;;39.45;22.45;;;;;;;0.19;82.87;100349.72;1794437;79;21037;-90
2022/12/24 00:53:17;;;;;;;40.30;23.32;;;;;;;0.33;83.18;100352.23;1782754;79;21002;-90
2022/12/24 00:55:44;;;;;;;43.23;23.55;;;;;;;0.47;83.21;100354.33;1782141;79;21449;-90
2022/12/24 00:58:10;;;;;;;42.40;24.02;;;;;;;0.54;82.90;100348.71;1796503;77;21027;-89
2022/12/24 01:00:37;;;;;;;43.50;21.95;;;;;;;0.56;82.63;100351.91;1767412;79;21661;-90
2022/12/24 01:03:04;;;;;;;40.98;21.37;;;;;;;0.53;82.33;100355.59;1764348;77;21046;-90
2022/12/24 01:05:30;;;;;;;37.00;20.17;;;;;;;0.51;82.23;100355.91;1760684;80;21022;-90
2022/12/24 01:07:57;;;;;;;39.40;21.45;;;;;;;0.46;82.03;100357.73;1768242;80;21052;-90
2022/12/24 01:10:24;;;;;;;39.85;21.45;;;;;;;0.42;82.06;100371.31;1758576;80;21031;-89
2022/12/24 01:12:50;;;;;;;36.05;20.35;;;;;;;0.36;82.01;100370.14;1763908;80;21755;-90
2022/12/24 01:15:17;;;;;;;37.25;20.70;;;;;;;0.30;81.97;100369.78;1760417;80;21029;-90
2022/12/24 01:17:44;;;;;;;39.15;20.85;;;;;;;0.26;82.01;100376.84;1748539;80;20991;-90
2022/12/24 01:20:14;;;;;;;35.23;19.95;;;;;;;0.22;82.03;100372.29;1756423;80;21425;-90
2022/12/24 01:22:41;;;;;;;34.23;20.27;;;;;;;0.21;82.07;100378.66;1711106;81;21042;-90
2022/12/24 01:25:08;;;;;;;34.50;20.48;;;;;;;0.16;82.04;100375.81;1717898;80;22639;-90
2022/12/24 01:27:35;;;;;;;35.23;19.57;;;;;;;0.13;82.08;100377.83;1750662;80;21050;-90
2022/12/24 01:30:01;;;;;;;37.42;20.50;;;;;;;0.10;81.98;100375.45;1756648;80;20932;-90
2022/12/24 01:32:28;;;;;;;33.33;18.52;;;;;;;0.05;81.97;100379.03;1751350;80;21140;-90
2022/12/24 01:34:55;;;;;;;38.30;19.02;;;;;;;0.01;82.02;100373.59;1764631;80;21042;-90
2022/12/24 01:37:22;;;;;;;35.23;16.25;;;;;;;-0.02;82.14;100377.78;1750688;80;22918;-90
2022/12/24 01:39:49;;;;;;;27.90;15.98;;;;;;;-0.05;82.29;100393.11;1734530;80;21026;-90
2022/12/24 01:45:44;;;;;;;31.85;16.97;;;;;;;-0.09;82.53;100397.61;1737887;80;21019;-90
2022/12/24 01:48:22;;;;;;;29.50;16.50;;;;;;;-0.15;82.61;100388.19;1732872;80;21073;-90
2022/12/24 01:50:52;;;;;;;27.40;16.95;;;;;;;-0.16;82.66;100394.14;1729155;80;21919;-90
2022/12/24 01:53:18;;;;;;;32.78;16.67;;;;;;;-0.17;82.70;100404.39;1739051;80;21043;-90
2022/12/24 01:55:45;;;;;;;34.73;16.90;;;;;;;-0.18;82.70;100405.20;1736461;80;20968;-90
2022/12/24 01:58:13;;;;;;;25.68;14.78;;;;;;;-0.21;82.75;100400.34;1751475;80;21468;-90
2022/12/24 02:00:40;;;;;;;28.40;15.13;;;;;;;-0.22;82.80;100407.59;1749978;80;21046;-90
2022/12/24 02:03:06;;;;;;;28.83;14.63;;;;;;;-0.22;82.89;100404.12;1737277;80;21739;-90
2022/12/24 02:05:48;;;;;;;30.02;13.38;;;;;;;-0.22;82.98;100408.88;1768143;79;20937;-90
2022/12/24 02:08:14;;;;;;;25.80;14.73;;;;;;;-0.21;83.15;100411.98;1772211;79;20986;-90
2022/12/24 02:10:41;;;;;;;23.70;14.18;;;;;;;-0.20;83.27;100413.75;1771942;79;21222;-89
2022/12/24 02:13:08;;;;;;;23.77;14.90;;;;;;;-0.18;83.35;100411.67;1719513;80;21549;-90
2022/12/24 02:15:40;;;;;;;28.07;13.58;;;;;;;-0.17;83.38;100410.86;1717774;82;21794;-89
2022/12/24 02:18:23;;;;;;;26.35;14.70;;;;;;;-0.15;83.41;100417.94;1736487;81;21711;-90
2022/12/24 02:21:17;;;;;;;24.85;13.58;;;;;;;-0.14;83.52;100413.64;1713692;81;21859;-89
2022/12/24 02:24:23;;;;;;;26.42;14.73;;;;;;;-0.10;83.58;100419.09;1789326;79;20975;-90
2022/12/24 02:27:30;;;;;;;23.47;12.53;;;;;;;-0.09;83.58;100417.02;1776333;79;21051;-89
2022/12/24 02:30:13;;;;;;;22.30;12.68;;;;;;;-0.09;83.62;100423.48;1774158;79;21730;-89
2022/12/24 02:33:27;;;;;;;24.05;13.00;;;;;;;-0.09;83.65;100424.77;1788592;79;21026;-90
2022/12/24 02:36:24;;;;;;;22.62;13.32;;;;;;;-0.06;83.83;100426.64;1731062;80;21036;-90
2022/12/24 02:39:05;;;;;;;22.00;11.75;;;;;;;-0.03;83.89;100431.61;1788640;79;21027;-89
2022/12/24 02:44:26;;;;;;;21.62;15.05;;;;;;;0.10;84.20;100437.16;1765289;79;22552;-89
2022/12/24 02:46:52;;;;;;;23.05;14.68;;;;;;;0.21;84.24;100435.61;1782812;79;21199;-90
2022/12/24 02:49:19;;;;;;;27.80;14.63;;;;;;;0.26;84.18;100435.09;1780543;79;20964;-90
2022/12/24 02:51:46;;;;;;;27.90;16.57;;;;;;;0.34;84.08;100436.47;1775393;79;21043;-90
2022/12/24 02:54:13;;;;;;;26.42;14.55;;;;;;;0.46;84.10;100441.48;1774625;79;22090;-90
2022/12/24 02:56:53;;;;;;;22.65;13.38;;;;;;;0.58;84.04;100438.34;1779845;79;21702;-91
2022/12/24 02:59:31;;;;;;;25.70;14.70;;;;;;;0.70;83.98;100434.70;1794611;79;21623;-90
2022/12/24 03:02:24;;;;;;;40.45;21.45;;;;;;;0.81;83.76;100437.91;1775233;79;20991;-89
2022/12/24 03:05:23;;;;;;;52.05;27.22;;;;;;;0.94;83.86;100435.26;1784315;79;21324;-89
2022/12/24 03:08:21;;;;;;;40.15;21.90;;;;;;;1.04;83.57;100434.97;1781147;80;20980;-90
2022/12/24 03:11:10;;;;;;;32.50;17.73;;;;;;;1.11;83.31;100447.89;1787884;79;22402;-90
2022/12/24 03:13:36;;;;;;;28.85;18.82;;;;;;;1.18;83.12;100452.60;1786535;79;20980;-89
2022/12/24 03:16:06;;;;;;;33.13;19.15;;;;;;;1.16;82.83;100443.84;1786879;78;20932;-90
2022/12/24 03:18:32;;;;;;;25.27;16.23;;;;;;;1.12;82.62;100452.26;1779999;80;21027;-90
2022/12/24 03:21:16;;;;;;;26.60;14.63;;;;;;;1.02;82.35;100449.54;1779678;80;21030;-89
2022/12/24 03:23:43;;;;;;;29.00;15.38;;;;;;;0.95;82.38;100452.16;1780313;80;21738;-89
2022/12/24 03:26:11;;;;;;;38.98;19.00;;;;;;;1.00;82.72;100452.86;1774280;80;21031;-89
2022/12/24 03:28:39;;;;;;;32.45;16.77;;;;;;;1.07;82.84;100453.30;1783581;80;21450;-89
2022/12/24 03:31:05;;;;;;;28.20;13.83;;;;;;;1.13;82.82;100457.95;1779201;79;21481;-89
2022/12/24 03:33:32;;;;;;;24.05;12.13;;;;;;;1.16;82.83;100459.41;1763074;80;21031;-89
2022/12/24 03:35:59;;;;;;;22.20;11.68;;;;;;;1.23;82.81;100459.37;1782077;80;21772;-90
2022/12/24 03:38:26;;;;;;;18.37;10.10;;;;;;;1.24;82.82;100458.16;1724319;81;21560;-90
2022/12/24 03:40:52;;;;;;;18.05;10.00;;;;;;;1.27;82.79;100469.10;1772706;80;21772;-90
2022/12/24 03:43:19;;;;;;;20.15;9.98;;;;;;;1.27;82.70;100470.40;1774814;79;21100;-89
2022/12/24 03:45:46;;;;;;;14.18;9.48;;;;;;;1.25;82.67;100476.78;1776330;80;20987;-90
2022/12/24 03:48:12;;;;;;;16.77;9.65;;;;;;;1.23;82.60;100478.81;1779724;79;22987;-89
2022/12/24 03:50:39;;;;;;;19.35;10.70;;;;;;;1.18;82.51;100482.42;1782062;79;21439;-90
2022/12/24 03:53:06;;;;;;;20.72;9.88;;;;;;;1.16;82.52;100484.03;1782746;80;21529;-89
2022/12/24 03:55:32;;;;;;;15.48;9.83;;;;;;;1.15;82.54;100489.62;1781283;80;21378;-90
2022/12/24 03:57:59;;;;;;;17.57;10.05;;;;;;;1.12;82.48;100488.14;1775681;80;21031;-90
2022/12/24 04:00:26;;;;;;;20.25;11.03;;;;;;;1.07;82.34;100489.97;1779312;80;21730;-89
2022/12/24 04:02:53;;;;;;;26.48;13.13;;;;;;;1.03;82.27;100489.30;1773535;80;21515;-90
2022/12/24 04:05:20;;;;;;;17.45;10.45;;;;;;;0.97;82.31;100490.72;1768093;80;20895;-89
2022/12/24 04:07:47;;;;;;;18.45;10.25;;;;;;;0.96;82.41;100494.55;1781313;79;21015;-90
2022/12/24 04:10:14;;;;;;;16.97;9.83;;;;;;;0.93;82.56;100486.17;1746214;81;21031;-89
2022/12/24 04:12:40;;;;;;;18.42;10.28;;;;;;;0.95;82.63;100491.03;1748966;81;21832;-89
2022/12/24 04:15:08;;;;;;;15.50;8.63;;;;;;;0.95;82.64;100491.45;1748058;81;21727;-89
2022/12/24 04:17:35;;;;;;;16.07;9.23;;;;;;;0.91;82.49;100490.37;1744858;81;21399;-90
2022/12/24 04:20:02;;;;;;;19.07;9.88;;;;;;;0.85;82.38;100496.49;1708941;83;21004;-90
2022/12/24 04:22:29;;;;;;;20.12;9.58;;;;;;;0.77;82.19;100497.74;1748780;81;20976;-90
2022/12/24 04:24:55;;;;;;;21.02;12.55;;;;;;;0.67;82.15;100496.67;1741429;81;21796;-89
2022/12/24 04:27:22;;;;;;;35.85;20.85;;;;;;;0.60;82.15;100504.87;1741500;81;20955;-89
2022/12/24 04:29:49;;;;;;;31.93;18.10;;;;;;;0.53;82.12;100503.62;1736018;81;20967;-89
2022/12/24 04:32:16;;;;;;;24.98;13.75;;;;;;;0.46;82.04;100504.92;1744862;81;20979;-89
2022/12/24 04:34:43;;;;;;;21.35;11.95;;;;;;;0.38;82.01;100505.75;1689627;83;21023;-89
2022/12/24 04:37:09;;;;;;;19.00;11.50;;;;;;;0.29;81.96;100501.30;1787147;80;21721;-89
2022/12/24 04:39:36;;;;;;;20.02;10.70;;;;;;;0.22;82.04;100505.59;1788048;80;22056;-90
2022/12/24 04:42:03;;;;;;;13.90;9.35;;;;;;;0.19;82.22;100508.91;1779740;80;20992;-89
2022/12/24 04:44:30;;;;;;;16.50;8.63;;;;;;;0.20;82.44;100513.67;1772565;80;21022;-89
2022/12/24 04:46:56;;;;;;;14.78;8.40;;;;;;;0.22;82.66;100511.19;1783372;80;21008;-90
2022/12/24 04:49:23;;;;;;;14.05;8.50;;;;;;;0.26;82.81;100510.16;1785934;80;21780;-90
2022/12/24 04:51:50;;;;;;;14.23;9.40;;;;;;;0.28;82.88;100515.06;1779803;80;20972;-90
2022/12/24 04:54:17;;;;;;;14.50;8.58;;;;;;;0.32;83.04;100510.94;1778298;80;20996;-90
2022/12/24 04:56:43;;;;;;;14.40;8.73;;;;;;;0.38;83.17;100510.94;1785745;80;21793;-90
2022/12/24 04:59:10;;;;;;;18.10;8.80;;;;;;;0.46;83.16;100508.81;1774671;80;21027;-89
2022/12/24 05:01:37;;;;;;;13.28;8.68;;;;;;;0.48;83.02;100514.09;1779753;80;22563;-89
2022/12/24 05:04:05;;;;;;;12.95;8.58;;;;;;;0.45;82.86;100510.00;1776628;79;21726;-89
2022/12/24 05:06:33;;;;;;;13.35;8.38;;;;;;;0.40;82.81;100509.73;1781288;79;21396;-90
2022/12/24 05:09:00;;;;;;;13.90;7.45;;;;;;;0.37;82.80;100513.42;1778921;79;21862;-90
2022/12/24 05:11:27;;;;;;;15.48;7.87;;;;;;;0.33;82.75;100516.62;1773270;79;21547;-90
2022/12/24 05:13:53;;;;;;;14.13;7.53;;;;;;;0.28;82.73;100515.06;1784929;79;22514;-90
2022/12/24 05:16:20;;;;;;;13.20;8.05;;;;;;;0.23;82.75;100516.46;1786018;79;21513;-89
2022/12/24 05:18:47;;;;;;;15.98;8.30;;;;;;;0.21;82.86;100512.88;1789710;79;21579;-90
2022/12/24 05:21:17;;;;;;;13.90;8.63;;;;;;;0.22;82.96;100522.42;1794587;79;20979;-89
2022/12/24 05:26:39;;;;;;;16.00;7.97;;;;;;;0.26;83.09;100522.22;1788316;79;22570;-89
2022/12/24 05:29:06;;;;;;;14.47;8.35;;;;;;;0.30;83.17;100532.88;1770963;79;21575;-89
2022/12/24 05:31:33;;;;;;;12.43;7.67;;;;;;;0.37;83.28;100534.13;1777583;78;21018;-90
2022/12/24 05:34:00;;;;;;;12.60;7.65;;;;;;;0.47;83.34;100541.69;1774855;80;20987;-90
2022/12/24 05:36:27;;;;;;;14.07;8.03;;;;;;;0.55;83.27;100544.75;1772389;80;20991;-90
2022/12/24 05:38:53;;;;;;;13.13;7.70;;;;;;;0.63;83.19;100542.63;1777857;80;21725;-90
2022/12/24 05:41:20;;;;;;;14.25;7.67;;;;;;;0.67;83.00;100540.72;1776948;79;20999;-90
2022/12/24 05:43:47;;;;;;;12.50;7.45;;;;;;;0.68;82.92;100542.11;1788446;79;21030;-90
2022/12/24 05:46:16;;;;;;;14.63;7.78;;;;;;;0.70;82.96;100549.57;1771920;79;21005;-89
2022/12/24 05:48:42;;;;;;;12.43;6.67;;;;;;;0.76;82.95;100549.05;1741169;81;22348;-89
2022/12/24 05:51:11;;;;;;;10.53;6.50;;;;;;;0.78;82.83;100544.85;1782253;79;22432;-90
2022/12/24 05:53:38;;;;;;;10.82;6.87;;;;;;;0.80;82.84;100549.72;1785061;79;21441;-89
2022/12/24 05:56:08;;;;;;;12.25;7.12;;;;;;;0.84;82.81;100551.69;1774838;79;21405;-89
2022/12/24 05:58:35;;;;;;;11.05;6.40;;;;;;;0.89;82.83;100558.05;1774776;79;21612;-90
2022/12/24 06:01:02;;;;;;;12.75;8.15;;;;;;;0.93;82.77;100563.02;1778275;79;21651;-90
2022/12/24 06:03:29;;;;;;;17.30;12.10;;;;;;;0.96;82.61;100557.62;1779534;79;22357;-90
2022/12/24 06:06:08;;;;;;;47.50;25.80;;;;;;;0.91;82.28;100559.05;1784143;79;20999;-90
2022/12/24 06:08:35;;;;;;;20.45;11.75;;;;;;;0.83;82.04;100557.70;1784107;79;21028;-90
2022/12/24 06:11:03;;;;;;;17.75;10.28;;;;;;;0.71;81.85;100560.44;1784192;79;21808;-90
2022/12/24 06:13:30;;;;;;;16.87;10.48;;;;;;;0.61;81.74;100563.25;1778664;79;21096;-90
2022/12/24 06:15:58;;;;;;;16.62;9.65;;;;;;;0.53;81.72;100570.95;1789305;79;22450;-89
2022/12/24 06:18:25;;;;;;;16.12;10.38;;;;;;;0.43;81.78;100568.17;1779252;79;20952;-90
2022/12/24 06:20:52;;;;;;;14.53;10.25;;;;;;;0.33;81.80;100563.23;1784574;79;20991;-90
2022/12/24 06:23:19;;;;;;;17.37;10.13;;;;;;;0.25;81.90;100573.52;1779149;79;20997;-90
2022/12/24 06:25:46;;;;;;;14.15;9.03;;;;;;;0.17;81.98;100579.09;1780741;79;21011;-90
2022/12/24 06:28:13;;;;;;;13.68;8.38;;;;;;;0.12;82.10;100575.72;1779380;79;21555;-90
2022/12/24 06:30:40;;;;;;;14.33;8.88;;;;;;;0.07;82.21;100583.16;1796855;79;21712;-90
2022/12/24 06:33:06;;;;;;;18.70;10.45;;;;;;;0.02;82.26;100591.05;1779233;79;21049;-90
2022/12/24 06:35:33;;;;;;;20.20;11.95;;;;;;;0.00;82.35;100597.83;1792064;79;21008;-90
2022/12/24 06:38:00;;;;;;;22.87;14.70;;;;;;;-0.04;82.44;100602.28;1772388;79;21469;-90
2022/12/24 06:40:27;;;;;;;23.62;14.87;;;;;;;-0.08;82.48;100597.30;1788832;79;22385;-90
2022/12/24 06:42:54;;;;;;;18.32;10.85;;;;;;;-0.08;82.54;100605.47;1788612;79;20868;-90
2022/12/24 06:45:20;;;;;;;18.27;11.57;;;;;;;-0.10;82.47;100611.84;1772011;79;20987;-89
2022/12/24 06:47:47;;;;;;;19.32;10.88;;;;;;;-0.12;82.44;100611.25;1777636;79;20974;-90
2022/12/24 06:50:14;;;;;;;18.65;11.00;;;;;;;-0.17;82.39;100617.40;1778730;79;21043;-90
2022/12/24 06:52:40;;;;;;;21.23;11.83;;;;;;;-0.17;82.43;100625.56;1786682;79;21698;-90
2022/12/24 06:55:08;;;;;;;18.65;11.97;;;;;;;-0.18;82.50;100630.26;1794177;79;21405;-90
2022/12/24 06:57:35;;;;;;;22.15;13.32;;;;;;;-0.16;82.56;100632.55;1787018;79;21077;-90
2022/12/24 07:00:02;;;;;;;17.30;12.58;;;;;;;-0.11;82.81;100638.52;1787527;79;21533;-90
2022/12/24 07:02:29;;;;;;;18.42;11.55;;;;;;;-0.01;82.99;100641.30;1787258;78;21050;-90
2022/12/24 07:04:56;;;;;;;18.98;10.85;;;;;;;0.11;83.19;100644.70;1798680;79;21721;-90
2022/12/24 07:07:22;;;;;;;18.35;11.00;;;;;;;0.26;83.35;100651.66;1798292;78;21373;-90
2022/12/24 07:09:49;;;;;;;21.55;10.55;;;;;;;0.40;83.42;100654.73;1798830;79;21408;-90
2022/12/24 07:12:16;;;;;;;17.48;10.35;;;;;;;0.52;83.38;100652.91;1797089;79;21026;-90
2022/12/24 07:14:42;;;;;;;16.70;10.45;;;;;;;0.59;83.17;100660.69;1795249;78;21010;-90
2022/12/24 07:17:09;;;;;;;17.95;10.98;;;;;;;0.65;83.07;100666.66;1789669;79;22167;-90
2022/12/24 07:19:35;;;;;;;19.52;10.25;;;;;;;0.64;82.90;100664.84;1787906;79;21434;-90
2022/12/24 07:22:02;;;;;;;20.00;11.18;;;;;;;0.63;82.91;100666.96;1787034;79;20997;-90
2022/12/24 07:24:29;;;;;;;18.52;10.58;;;;;;;0.63;82.83;100679.91;1789025;79;20986;-89
2022/12/24 07:26:55;;;;;;;17.25;10.35;;;;;;;0.60;82.77;100675.41;1781468;79;20988;-89
2022/12/24 07:29:22;;;;;;;15.20;9.88;;;;;;;0.58;82.77;100686.08;1784165;79;21711;-89
2022/12/24 07:31:49;;;;;;;15.23;10.45;;;;;;;0.57;82.84;100685.59;1780227;79;20923;-89
2022/12/24 07:34:16;;;;;;;17.40;10.13;;;;;;;0.56;82.88;100683.42;1796225;79;22145;-89
2022/12/24 07:36:42;;;;;;;15.00;10.05;;;;;;;0.57;82.94;100680.42;1791258;79;21023;-89
2022/12/24 07:39:09;;;;;;;15.80;10.60;;;;;;;0.58;82.91;100683.11;1787912;79;21014;-89
2022/12/24 07:41:36;;;;;;;15.68;10.13;;;;;;;0.59;83.02;100691.77;1791926;79;21667;-90
2022/12/24 07:44:02;;;;;;;15.43;10.43;;;;;;;0.60;83.09;100697.42;1783943;79;20993;-90
2022/12/24 07:46:29;;;;;;;15.28;10.20;;;;;;;0.61;83.06;100700.53;1788237;79;20986;-90
2022/12/24 07:48:56;;;;;;;19.25;11.38;;;;;;;0.61;83.03;100699.64;1791905;79;21015;-89
2022/12/24 07:51:23;;;;;;;17.27;11.03;;;;;;;0.64;82.99;100707.59;1780093;79;21419;-89
2022/12/24 07:53:49;;;;;;;19.20;10.72;;;;;;;0.65;83.03;100710.69;1794856;79;21724;-89
2022/12/24 07:56:16;;;;;;;16.00;10.48;;;;;;;0.67;82.95;100711.69;1781860;79;20967;-91
2022/12/24 07:58:43;;;;;;;17.32;10.88;;;;;;;0.68;82.97;100710.49;1790437;79;21595;-90
2022/12/24 08:01:09;;;;;;;19.98;12.18;;;;;;;0.71;83.01;100718.47;1778326;79;21049;-90
2022/12/24 08:03:37;;;;;;;24.45;13.75;;;;;;;0.74;83.00;100715.17;1786948;79;21026;-90
2022/12/24 08:06:04;;;;;;;24.95;14.63;;;;;;;0.78;83.06;100719.33;1765267;79;21798;-90
2022/12/24 08:08:30;;;;;;;23.25;14.93;;;;;;;0.86;83.24;100722.41;1790431;79;21026;-90
2022/12/24 08:11:01;;;;;;;31.05;17.87;;;;;;;0.97;83.38;100723.98;1789082;79;21485;-90
2022/12/24 08:13:29;;;;;;;35.08;21.33;;;;;;;1.14;83.45;100728.03;1789643;79;21724;-90
2022/12/24 08:15:55;;;;;;;30.20;16.82;;;;;;;1.24;83.30;100729.49;1768099;79;21121;-90
2022/12/24 08:18:24;;;;;;;27.85;14.38;;;;;;;1.31;83.21;100734.27;1781226;79;22545;-89
2022/12/24 08:20:50;;;;;;;24.52;13.88;;;;;;;1.36;83.20;100737.63;1783205;79;21463;-90
2022/12/24 08:23:17;;;;;;;22.55;13.72;;;;;;;1.46;83.24;100740.38;1769492;79;20947;-90
2022/12/24 08:25:45;;;;;;;23.75;14.23;;;;;;;1.58;83.32;100742.86;1779531;79;21391;-90
2022/12/24 08:28:14;;;;;;;20.57;12.35;;;;;;;1.71;83.25;100747.09;1786537;79;21047;-90
2022/12/24 08:30:41;;;;;;;26.95;13.93;;;;;;;1.74;83.03;100741.66;1786575;77;21715;-90
2022/12/24 08:33:07;;;;;;;19.70;12.40;;;;;;;1.79;82.99;100740.66;1788431;78;20987;-90
2022/12/24 08:35:34;;;;;;;18.05;12.13;;;;;;;1.82;82.92;100746.04;1793779;79;21015;-90
2022/12/24 08:38:01;;;;;;;21.57;12.45;;;;;;;1.87;82.95;100746.30;1778596;79;21007;-90
2022/12/24 08:40:28;;;;;;;22.55;13.18;;;;;;;1.91;82.94;100751.75;1756756;79;21030;-90
2022/12/24 08:42:54;;;;;;;27.37;16.90;;;;;;;1.98;82.85;100751.72;1787519;78;21621;-90
2022/12/24 08:45:21;;;;;;;28.83;18.30;;;;;;;2.00;82.70;100752.70;1771275;78;21525;-90
2022/12/24 08:47:48;;;;;;;40.83;23.20;;;;;;;2.03;82.68;100758.51;1788779;78;21019;-90
2022/12/24 08:50:15;;;;;;;41.18;23.65;;;;;;;2.06;82.63;100763.86;1780270;79;21198;-90
2022/12/24 08:52:42;;;;;;;47.10;26.73;;;;;;;2.07;82.55;100763.07;1784584;77;21022;-90
2022/12/24 08:55:08;;;;;;;47.03;27.05;;;;;;;2.09;82.48;100773.14;1792384;79;21720;-90
2022/12/24 08:57:36;;;;;;;40.88;23.07;;;;;;;2.11;82.46;100775.42;1775541;78;21034;-90
2022/12/24 09:00:05;;;;;;;36.77;20.48;;;;;;;2.13;82.43;100782.48;1777128;79;21006;-89
2022/12/24 09:02:31;;;;;;;36.88;23.00;;;;;;;2.18;82.58;100784.08;1794171;79;21342;-90
2022/12/24 09:04:58;;;;;;;39.60;21.40;;;;;;;2.26;82.63;100781.92;1774555;79;21014;-91
2022/12/24 09:07:25;;;;;;;32.67;17.98;;;;;;;2.32;82.62;100788.36;1785914;79;21717;-90
2022/12/24 09:09:52;;;;;;;28.92;16.55;;;;;;;2.40;82.66;100787.91;1794465;79;21428;-90
2022/12/24 09:12:19;;;;;;;21.57;13.48;;;;;;;2.45;82.71;100783.48;1786261;79;21003;-90
2022/12/24 09:14:45;;;;;;;23.27;12.30;;;;;;;2.54;82.75;100792.22;1778875;79;21088;-90
2022/12/24 09:17:12;;;;;;;22.85;15.78;;;;;;;2.60;82.74;100796.87;1767240;79;21007;-90
2022/12/24 09:19:39;;;;;;;15.25;9.73;;;;;;;2.65;82.73;100795.03;1777681;79;21721;-90
2022/12/24 09:22:06;;;;;;;21.27;14.80;;;;;;;2.72;82.72;100796.27;1774967;79;20975;-90
2022/12/24 09:24:34;;;;;;;17.65;11.35;;;;;;;2.74;82.63;100789.48;1769988;79;21436;-90
2022/12/24 09:27:01;;;;;;;14.95;9.30;;;;;;;2.80;82.64;100793.72;1773785;79;20987;-90
2022/12/24 09:29:28;;;;;;;19.37;13.03;;;;;;;2.86;82.62;100794.05;1790484;79;21018;-90
2022/12/24 09:31:55;;;;;;;18.15;10.28;;;;;;;2.90;82.58;100797.72;1777081;79;21737;-90
2022/12/24 09:34:21;;;;;;;17.50;8.85;;;;;;;2.93;82.41;100803.11;1775249;78;21027;-91
2022/12/24 09:36:48;;;;;;;17.87;9.05;;;;;;;2.91;82.30;100804.31;1792678;78;21884;-91
2022/12/24 09:39:15;;;;;;;17.57;9.90;;;;;;;2.93;82.28;100807.01;1779590;79;21005;-90
2022/12/24 09:41:59;;;;;;;19.60;10.98;;;;;;;2.94;82.24;100819.19;1766576;79;21082;-90
2022/12/24 09:44:45;;;;;;;18.15;9.70;;;;;;;2.95;82.22;100822.29;1750118;79;21729;-91
2022/12/24 09:47:38;;;;;;;14.70;8.18;;;;;;;2.98;82.18;100827.64;1751764;79;21385;-92
2022/12/24 09:50:41;;;;;;;14.07;7.25;;;;;;;2.99;82.15;100830.75;1796410;79;21019;-90
2022/12/24 09:53:37;;;;;;;12.05;6.15;;;;;;;3.05;82.20;100832.80;1780215;79;21257;-90
2022/12/24 09:56:10;;;;;;;13.28;8.53;;;;;;;3.10;82.12;100831.36;1728758;81;21405;-90
2022/12/24 09:58:42;;;;;;;12.58;6.65;;;;;;;3.07;81.93;100828.16;1776672;79;21895;-90
2022/12/24 10:01:13;;;;;;;13.83;7.58;;;;;;;3.05;81.93;100825.88;1740016;81;21042;-90
2022/12/24 10:03:39;;;;;;;13.93;7.03;;;;;;;3.08;81.95;100832.98;1731127;82;21060;-90
2022/12/24 10:06:11;;;;;;;13.85;7.37;;;;;;;3.09;81.92;100830.86;1718122;81;21057;-90
2022/12/24 10:09:15;;;;;;;13.25;7.87;;;;;;;3.09;81.90;100834.76;1736880;81;21031;-90
2022/12/24 10:12:04;;;;;;;19.03;9.43;;;;;;;3.10;81.84;100832.66;1769902;79;21732;-90
2022/12/24 10:15:08;;;;;;;21.75;11.88;;;;;;;3.11;81.88;100845.73;1777934;79;21042;-90
2022/12/24 10:17:52;;;;;;;22.87;11.25;;;;;;;3.14;81.93;100843.72;1777645;79;21477;-90
2022/12/24 10:20:34;;;;;;;;;;;;;;;3.15;81.83;100835.09;1773840;79;21015;-90
2022/12/24 10:23:17;;;;;;;27.45;13.30;;;;;;;3.17;81.83;100842.58;1725889;79;20198;-90
2022/12/24 10:25:52;;;;;;;19.57;9.38;;;;;;;3.17;81.78;100845.59;1769907;79;22575;-89
2022/12/24 10:28:23;;;;;;;19.30;9.38;;;;;;;3.15;81.67;100844.20;1784607;79;21042;-89
2022/12/24 10:30:54;;;;;;;13.28;7.87;;;;;;;3.16;81.55;100846.42;1787019;79;21364;-89
2022/12/24 10:33:32;;;;;;;19.27;10.18;;;;;;;3.14;81.59;100852.83;1782666;79;21341;-90
2022/12/24 10:35:58;;;;;;;14.93;8.53;;;;;;;3.17;81.55;100858.18;1791373;79;20979;-90
2022/12/24 10:38:25;;;;;;;15.43;8.03;;;;;;;3.19;81.58;100856.97;1769512;79;21671;-90
2022/12/24 10:40:54;;;;;;;11.45;7.22;;;;;;;3.21;81.52;100858.88;1767881;79;20983;-90
2022/12/24 10:43:23;;;;;;;10.90;6.30;;;;;;;3.23;81.41;100856.33;1778194;78;20975;-90
2022/12/24 10:45:54;;;;;;;8.50;5.70;;;;;;;3.26;81.35;100860.41;1784153;79;21441;-90
2022/12/24 10:48:31;;;;;;;13.30;6.25;;;;;;;3.26;81.27;100861.30;1785837;79;21043;-89
2022/12/24 10:51:02;;;;;;;8.13;5.30;;;;;;;3.27;81.18;100867.42;1764112;79;22200;-90
2022/12/24 10:53:51;;;;;;;9.78;4.90;;;;;;;3.25;81.16;100870.34;1755760;79;21568;-90
2022/12/24 10:56:18;;;;;;;9.13;5.05;;;;;;;3.26;81.07;100870.82;1772057;79;21058;-90
2022/12/24 10:58:48;;;;;;;10.35;5.25;;;;;;;3.23;80.98;100875.84;1789392;79;21631;-89
2022/12/24 11:01:14;;;;;;;17.25;10.60;;;;;;;3.22;80.91;100871.47;1790434;79;21035;-89
2022/12/24 11:03:41;;;;;;;9.83;6.33;;;;;;;3.23;80.92;100877.14;1782429;79;21737;-89
2022/12/24 11:06:19;;;;;;;8.85;5.78;;;;;;;3.24;80.97;100878.95;1786461;79;21007;-89
2022/12/24 11:08:44;;;;;;;8.70;5.75;;;;;;;3.27;81.04;100883.92;1781325;79;21014;-90
2022/12/24 11:11:18;;;;;;;8.60;6.10;;;;;;;3.31;80.93;100885.88;1767900;79;21022;-90
2022/12/24 11:13:54;;;;;;;7.40;5.28;;;;;;;3.33;80.90;100890.29;1771220;79;21545;-90
2022/12/24 11:16:30;;;;;;;10.32;5.97;;;;;;;3.33;80.73;100888.58;1728278;80;22273;-90
2022/12/24 11:18:59;;;;;;;9.48;5.58;;;;;;;3.30;80.61;100888.39;1747439;81;21020;-90
2022/12/24 11:21:34;;;;;;;10.82;5.87;;;;;;;3.27;80.49;100882.62;1778321;79;21003;-90
2022/12/24 11:24:25;;;;;;;10.55;6.12;;;;;;;3.26;80.50;100883.83;1785012;79;21376;-90
2022/12/24 11:26:52;;;;;;;12.40;7.00;;;;;;;3.26;80.48;100886.02;1770315;79;20980;-90
2022/12/24 11:29:28;;;;;;;17.98;8.55;;;;;;;3.23;80.36;100892.37;1746301;79;22641;-90
2022/12/24 11:32:17;;;;;;;11.97;7.40;;;;;;;3.18;80.35;100892.50;1781872;79;20966;-90
2022/12/24 11:34:44;;;;;;;15.85;7.58;;;;;;;3.16;80.35;100892.83;1781693;79;20992;-90
2022/12/24 11:37:23;;;;;;;14.70;7.20;;;;;;;3.14;80.37;100894.45;1769227;79;21074;-90
2022/12/24 11:39:53;;;;;;;16.10;7.75;;;;;;;3.13;80.43;100908.24;1773567;79;20960;-90
2022/12/24 11:42:39;;;;;;;12.80;7.58;;;;;;;3.10;80.32;100912.88;1778311;79;22577;-90